sensor_id;sensor_type;location;lat;lon;timestamp;pressure;altitude;pressure_sealevel;temperature;humidity
68199;BME280;55021;51.554;17.044;2023-05-24T00:10:28;100382.72;;;15.44;85.68
68199;BME280;55021;51.554;17.044;2023-05-24T00:25:31;100426.41;;;15.21;86.83
68199;BME280;55021;51.554;17.044;2023-05-24T00:40:34;100427.00;;;15.31;85.89
68199;BME280;55021;51.554;17.044;2023-05-24T00:55:36;100440.81;;;14.70;88.11
68199;BME280;55021;51.554;17.044;2023-05-24T01:10:45;100433.53;;;14.31;89.14
68199;BME280;55021;51.554;17.044;2023-05-24T01:26:13;100476.97;;;14.17;89.33
68199;BME280;55021;51.554;17.044;2023-05-24T01:41:35;100476.09;;;13.69;89.82
68199;BME280;55021;51.554;17.044;2023-05-24T01:56:40;100501.44;;;13.13;88.55
68199;BME280;55021;51.554;17.044;2023-05-24T02:11:44;100519.56;;;12.81;87.99
68199;BME280;55021;51.554;17.044;2023-05-24T02:26:46;100562.00;;;12.32;88.57
68199;BME280;55021;51.554;17.044;2023-05-24T02:41:49;100586.72;;;11.77;89.51
68199;BME280;55021;51.554;17.044;2023-05-24T02:56:52;100594.50;;;11.80;88.66
68199;BME280;55021;51.554;17.044;2023-05-24T03:11:56;100602.34;;;11.83;88.34
68199;BME280;55021;51.554;17.044;2023-05-24T03:26:58;100612.19;;;11.67;89.13
68199;BME280;55021;51.554;17.044;2023-05-24T03:42:01;100624.00;;;11.40;88.21
68199;BME280;55021;51.554;17.044;2023-05-24T03:57:04;100630.03;;;11.95;85.72
68199;BME280;55021;51.554;17.044;2023-05-24T04:12:06;100553.91;;;11.19;85.00
68199;BME280;55021;51.554;17.044;2023-05-24T04:27:10;100661.47;;;12.23;83.67
68199;BME280;55021;51.554;17.044;2023-05-24T04:42:12;100657.78;;;11.89;84.31
68199;BME280;55021;51.554;17.044;2023-05-24T04:57:16;100680.38;;;11.36;86.66
68199;BME280;55021;51.554;17.044;2023-05-24T05:12:18;100684.66;;;11.29;86.18
68199;BME280;55021;51.554;17.044;2023-05-24T05:27:22;100694.13;;;11.43;85.49
68199;BME280;55021;51.554;17.044;2023-05-24T05:42:46;100717.34;;;11.28;85.33
68199;BME280;55021;51.554;17.044;2023-05-24T05:57:53;100702.72;;;11.38;84.33
68199;BME280;55021;51.554;17.044;2023-05-24T06:12:57;100740.19;;;11.78;83.66
68199;BME280;55021;51.554;17.044;2023-05-24T06:28:06;100679.88;;;11.76;80.90
68199;BME280;55021;51.554;17.044;2023-05-24T06:43:15;100765.16;;;12.60;81.22
68199;BME280;55021;51.554;17.044;2023-05-24T06:58:32;100740.38;;;13.31;76.49
68199;BME280;55021;51.554;17.044;2023-05-24T07:13:51;100686.72;;;12.49;76.77
68199;BME280;55021;51.554;17.044;2023-05-24T07:28:57;100754.16;;;12.18;78.97
68199;BME280;55021;51.554;17.044;2023-05-24T07:59:19;100849.16;;;13.13;77.29
68199;BME280;55021;51.554;17.044;2023-05-24T08:14:21;100889.81;;;13.49;75.92
68199;BME280;55021;51.554;17.044;2023-05-24T08:29:26;100897.28;;;13.47;75.22
68199;BME280;55021;51.554;17.044;2023-05-24T08:44:29;100841.75;;;12.72;76.42
68199;BME280;55021;51.554;17.044;2023-05-24T08:59:32;100914.47;;;13.55;75.81
68199;BME280;55021;51.554;17.044;2023-05-24T09:14:36;100899.97;;;13.21;76.90
68199;BME280;55021;51.554;17.044;2023-05-24T09:29:41;100936.06;;;13.90;73.64
68199;BME280;55021;51.554;17.044;2023-05-24T09:45:07;100947.38;;;14.94;71.82
68199;BME280;55021;51.554;17.044;2023-05-24T10:00:21;100936.97;;;14.81;72.23
68199;BME280;55021;51.554;17.044;2023-05-24T10:15:25;100882.00;;;14.86;70.58
68199;BME280;55021;51.554;17.044;2023-05-24T10:30:32;100971.59;;;14.39;71.89
68199;BME280;55021;51.554;17.044;2023-05-24T10:45:38;100949.91;;;14.87;70.05
68199;BME280;55021;51.554;17.044;2023-05-24T11:00:43;100948.19;;;14.86;69.73
68199;BME280;55021;51.554;17.044;2023-05-24T11:15:50;100980.53;;;15.54;68.07
68199;BME280;55021;51.554;17.044;2023-05-24T11:30:52;100958.66;;;15.86;66.45
68199;BME280;55021;51.554;17.044;2023-05-24T11:45:55;100891.69;;;16.82;62.24
68199;BME280;55021;51.554;17.044;2023-05-24T12:00:58;100949.75;;;17.74;60.70
68199;BME280;55021;51.554;17.044;2023-05-24T12:16:01;100963.50;;;16.68;64.11
68199;BME280;55021;51.554;17.044;2023-05-24T12:31:05;100930.06;;;16.89;62.00
68199;BME280;55021;51.554;17.044;2023-05-24T12:46:07;100974.09;;;17.17;62.39
68199;BME280;55021;51.554;17.044;2023-05-24T13:01:10;100951.34;;;17.68;61.41
68199;BME280;55021;51.554;17.044;2023-05-24T13:16:12;100880.03;;;16.88;62.00
68199;BME280;55021;51.554;17.044;2023-05-24T13:31:15;100950.41;;;17.61;60.52
68199;BME280;55021;51.554;17.044;2023-05-24T13:46:18;100937.78;;;17.75;61.03
68199;BME280;55021;51.554;17.044;2023-05-24T14:01:20;100883.44;;;16.91;61.14
68199;BME280;55021;51.554;17.044;2023-05-24T14:16:23;100972.94;;;17.48;61.44
68199;BME280;55021;51.554;17.044;2023-05-24T14:31:25;100943.31;;;16.77;61.68
68199;BME280;55021;51.554;17.044;2023-05-24T14:46:28;100969.13;;;16.98;63.74
68199;BME280;55021;51.554;17.044;2023-05-24T15:01:30;100992.81;;;16.82;63.15
68199;BME280;55021;51.554;17.044;2023-05-24T15:16:33;101000.78;;;16.61;64.48
68199;BME280;55021;51.554;17.044;2023-05-24T15:31:35;100985.53;;;16.67;64.87
68199;BME280;55021;51.554;17.044;2023-05-24T15:46:38;100909.78;;;16.07;64.38
68199;BME280;55021;51.554;17.044;2023-05-24T16:01:44;100990.84;;;15.91;66.13
68199;BME280;55021;51.554;17.044;2023-05-24T16:16:47;101006.97;;;16.78;64.53
68199;BME280;55021;51.554;17.044;2023-05-24T16:31:49;101015.94;;;16.72;64.25
68199;BME280;55021;51.554;17.044;2023-05-24T16:46:53;100981.38;;;16.48;65.48
68199;BME280;55021;51.554;17.044;2023-05-24T17:02:02;100988.84;;;15.60;66.19
68199;BME280;55021;51.554;17.044;2023-05-24T17:17:19;101054.38;;;16.23;66.30
68199;BME280;55021;51.554;17.044;2023-05-24T17:32:41;101060.97;;;16.84;64.42
68199;BME280;55021;51.554;17.044;2023-05-24T17:47:44;100985.22;;;16.00;66.21
68199;BME280;55021;51.554;17.044;2023-05-24T18:02:48;101062.50;;;15.77;67.66
68199;BME280;55021;51.554;17.044;2023-05-24T18:17:54;101049.56;;;15.79;66.97
68199;BME280;55021;51.554;17.044;2023-05-24T18:32:56;101072.41;;;15.61;67.38
68199;BME280;55021;51.554;17.044;2023-05-24T18:47:59;101126.50;;;15.00;71.60
68199;BME280;55021;51.554;17.044;2023-05-24T19:03:01;101127.94;;;14.36;73.06
68199;BME280;55021;51.554;17.044;2023-05-24T19:18:04;101158.56;;;13.16;77.62
68199;BME280;55021;51.554;17.044;2023-05-24T19:33:07;101077.59;;;13.20;74.89
68199;BME280;55021;51.554;17.044;2023-05-24T19:48:09;101096.66;;;12.75;75.33
68199;BME280;55021;51.554;17.044;2023-05-24T20:03:12;101089.94;;;11.59;79.79
68199;BME280;55021;51.554;17.044;2023-05-24T20:18:16;101120.78;;;11.20;81.65
68199;BME280;55021;51.554;17.044;2023-05-24T20:33:19;101145.72;;;12.27;76.56
68199;BME280;55021;51.554;17.044;2023-05-24T20:48:21;101103.53;;;11.30;79.55
68199;BME280;55021;51.554;17.044;2023-05-24T21:03:24;101168.94;;;11.64;77.63
68199;BME280;55021;51.554;17.044;2023-05-24T21:18:27;101163.50;;;11.07;80.77
68199;BME280;55021;51.554;17.044;2023-05-24T21:33:29;101177.06;;;11.26;77.97
68199;BME280;55021;51.554;17.044;2023-05-24T21:48:31;101184.81;;;10.81;80.06
68199;BME280;55021;51.554;17.044;2023-05-24T22:03:34;101191.22;;;10.80;80.22
68199;BME280;55021;51.554;17.044;2023-05-24T22:18:38;101240.22;;;10.26;81.06
68199;BME280;55021;51.554;17.044;2023-05-24T22:33:41;101211.06;;;10.29;81.37
68199;BME280;55021;51.554;17.044;2023-05-24T22:48:44;101247.41;;;10.57;78.57
68199;BME280;55021;51.554;17.044;2023-05-24T23:03:46;101223.25;;;10.03;80.04
68199;BME280;55021;51.554;17.044;2023-05-24T23:18:49;101221.94;;;9.98;82.49
68199;BME280;55021;51.554;17.044;2023-05-24T23:33:51;101178.44;;;10.21;76.49
68199;BME280;55021;51.554;17.044;2023-05-24T23:48:53;101250.63;;;10.10;79.34
